createdAt,value
2022-11-30T00:01:11.351Z,16.23
2022-11-30T00:03:39.054Z,17.70
2022-11-30T00:06:06.726Z,16.17
2022-11-30T00:08:34.159Z,15.90
2022-11-30T00:11:01.630Z,16.60
2022-11-30T00:13:29.045Z,16.47
2022-11-30T00:16:00.908Z,18.13
2022-11-30T00:18:29.693Z,17.60
2022-11-30T00:20:59.987Z,17.47
2022-11-30T00:23:27.539Z,17.30
2022-11-30T00:25:54.940Z,16.67
2022-11-30T00:28:22.361Z,16.40
2022-11-30T00:30:58.000Z,16.17
2022-11-30T00:33:25.762Z,17.00
2022-11-30T00:35:58.414Z,17.40
2022-11-30T00:38:26.019Z,16.63
2022-11-30T00:40:53.442Z,18.63
2022-11-30T00:43:20.880Z,18.63
2022-11-30T00:45:48.434Z,17.27
2022-11-30T00:48:15.916Z,16.43
2022-11-30T00:50:43.401Z,15.87
2022-11-30T00:53:12.149Z,15.90
2022-11-30T00:55:39.605Z,16.07
2022-11-30T00:58:07.655Z,15.60
2022-11-30T01:00:35.262Z,15.30
2022-11-30T01:03:03.024Z,16.47
2022-11-30T01:05:30.787Z,14.87
2022-11-30T01:08:00.727Z,15.60
2022-11-30T01:10:29.582Z,14.57
2022-11-30T01:12:57.021Z,13.77
2022-11-30T01:15:24.444Z,14.67
2022-11-30T01:17:51.864Z,14.63
2022-11-30T01:20:19.571Z,14.50
2022-11-30T01:22:47.370Z,14.23
2022-11-30T01:25:14.799Z,13.73
2022-11-30T01:27:44.705Z,13.73
2022-11-30T01:30:12.599Z,14.77
2022-11-30T01:32:40.012Z,13.60
2022-11-30T01:35:11.591Z,13.87
2022-11-30T01:37:39.051Z,13.90
2022-11-30T01:40:07.209Z,14.20
2022-11-30T01:42:34.823Z,15.33
2022-11-30T01:45:04.917Z,13.77
2022-11-30T01:47:33.984Z,13.67
2022-11-30T01:50:04.243Z,15.17
2022-11-30T01:52:34.199Z,14.13
2022-11-30T01:55:06.750Z,14.80
2022-11-30T01:57:37.171Z,14.57
2022-11-30T02:00:08.134Z,13.53
2022-11-30T02:02:40.481Z,14.43
2022-11-30T02:05:08.321Z,13.50
2022-11-30T02:07:36.185Z,14.93
2022-11-30T02:10:03.712Z,13.57
2022-11-30T02:12:35.698Z,15.57
2022-11-30T02:15:06.273Z,12.97
2022-11-30T02:17:39.677Z,13.20
2022-11-30T02:20:26.915Z,13.83
2022-11-30T02:23:06.271Z,15.17
2022-11-30T02:25:37.555Z,15.17
2022-11-30T02:28:20.472Z,13.13
2022-11-30T02:30:51.432Z,14.30
2022-11-30T02:33:20.730Z,14.53
2022-11-30T02:35:54.777Z,15.53
2022-11-30T02:38:23.203Z,14.27
2022-11-30T02:40:50.642Z,14.93
2022-11-30T02:43:19.985Z,14.60
2022-11-30T02:45:51.583Z,14.20
2022-11-30T02:48:21.510Z,14.30
2022-11-30T02:50:50.962Z,14.13
2022-11-30T02:53:18.407Z,14.63
2022-11-30T02:55:45.930Z,14.40
2022-11-30T02:58:14.562Z,14.37
2022-11-30T03:00:42.298Z,13.47
2022-11-30T03:03:11.019Z,13.77
2022-11-30T03:05:38.429Z,13.60
2022-11-30T03:08:06.024Z,14.03
2022-11-30T03:10:33.457Z,12.90
2022-11-30T03:13:01.386Z,13.83
2022-11-30T03:15:28.799Z,12.63
2022-11-30T03:17:56.532Z,13.60
2022-11-30T03:20:25.563Z,13.83
2022-11-30T03:22:52.975Z,12.83
2022-11-30T03:25:20.366Z,12.93
2022-11-30T03:27:47.764Z,13.27
2022-11-30T03:30:15.296Z,13.30
2022-11-30T03:32:42.695Z,13.00
2022-11-30T03:35:10.131Z,12.83
2022-11-30T03:37:38.883Z,12.13
2022-11-30T03:40:06.986Z,14.73
2022-11-30T03:42:34.390Z,15.10
2022-11-30T03:45:01.804Z,13.93
2022-11-30T03:47:29.224Z,14.20
2022-11-30T03:49:56.613Z,15.17
2022-11-30T03:52:24.156Z,14.70
2022-11-30T03:54:52.897Z,15.00
2022-11-30T03:57:20.308Z,11.50
2022-11-30T03:59:47.708Z,12.97
2022-11-30T04:02:15.152Z,14.23
2022-11-30T04:04:42.531Z,14.27
2022-11-30T04:07:09.929Z,14.23
2022-11-30T04:09:37.326Z,11.67
2022-11-30T04:12:06.767Z,12.40
2022-11-30T04:14:34.167Z,12.23
2022-11-30T04:17:02.684Z,12.20
2022-11-30T04:19:30.070Z,12.37
2022-11-30T04:21:57.452Z,12.03
2022-11-30T04:24:24.940Z,11.67
2022-11-30T04:26:52.351Z,11.67
2022-11-30T04:29:21.112Z,11.83
2022-11-30T04:31:48.588Z,11.97
2022-11-30T04:34:17.217Z,12.50
2022-11-30T04:36:44.654Z,11.40
2022-11-30T04:39:12.084Z,12.03
2022-11-30T04:41:40.435Z,11.37
2022-11-30T04:44:07.917Z,12.53
2022-11-30T04:46:37.351Z,12.70
2022-11-30T04:49:04.781Z,11.37
2022-11-30T04:51:32.180Z,13.40
2022-11-30T04:53:59.557Z,12.27
2022-11-30T04:56:26.957Z,12.30
2022-11-30T04:58:54.344Z,12.57
2022-11-30T05:01:21.831Z,11.60
2022-11-30T05:03:50.661Z,12.67
2022-11-30T05:06:18.066Z,13.57
2022-11-30T05:08:45.462Z,13.33
2022-11-30T05:11:12.861Z,12.00
2022-11-30T05:13:40.280Z,12.47
2022-11-30T05:16:08.314Z,11.43
2022-11-30T05:18:35.750Z,12.70
2022-11-30T05:21:04.562Z,11.77
2022-11-30T05:23:31.971Z,12.23
2022-11-30T05:26:02.088Z,12.20
2022-11-30T05:28:29.535Z,11.50
2022-11-30T05:30:56.930Z,12.07
2022-11-30T05:33:25.371Z,11.53
2022-11-30T05:35:52.774Z,11.97
2022-11-30T05:38:21.511Z,11.53
2022-11-30T05:40:48.911Z,11.47
2022-11-30T05:43:16.311Z,12.17
2022-11-30T05:45:43.693Z,10.33
2022-11-30T05:48:11.158Z,11.53
2022-11-30T05:50:38.544Z,11.60
2022-11-30T05:53:05.905Z,10.70
2022-11-30T05:55:34.671Z,10.97
2022-11-30T05:58:02.067Z,10.50
2022-11-30T06:00:30.550Z,10.63
2022-11-30T06:02:58.561Z,9.03
2022-11-30T06:05:26.597Z,10.97
2022-11-30T06:07:54.313Z,11.03
2022-11-30T06:10:21.998Z,10.47
2022-11-30T06:12:51.720Z,9.83
2022-11-30T06:15:19.135Z,10.10
2022-11-30T06:17:46.542Z,10.23
2022-11-30T06:20:14.525Z,10.47
2022-11-30T06:22:41.925Z,11.23
2022-11-30T06:25:09.451Z,9.47
2022-11-30T06:27:36.867Z,10.40
2022-11-30T06:30:06.472Z,8.83
2022-11-30T06:32:33.867Z,10.37
2022-11-30T06:35:01.262Z,9.83
2022-11-30T06:37:28.711Z,10.63
2022-11-30T06:40:06.669Z,9.60
2022-11-30T06:42:36.378Z,9.43
2022-11-30T06:45:04.108Z,10.40
2022-11-30T06:47:32.856Z,9.60
2022-11-30T06:50:00.290Z,10.00
2022-11-30T06:52:28.113Z,9.33
2022-11-30T06:54:55.513Z,9.03
2022-11-30T06:57:26.918Z,10.47
2022-11-30T06:59:54.363Z,9.23
2022-11-30T07:02:21.839Z,9.37
2022-11-30T07:04:50.807Z,9.77
2022-11-30T07:07:18.442Z,9.90
2022-11-30T07:09:45.891Z,9.50
2022-11-30T07:12:13.329Z,9.43
2022-11-30T07:14:40.730Z,9.23
2022-11-30T07:17:08.163Z,10.33
2022-11-30T07:19:35.695Z,10.20
2022-11-30T07:22:04.455Z,8.83
2022-11-30T07:24:49.794Z,9.57
2022-11-30T07:27:17.455Z,8.83
2022-11-30T07:29:44.908Z,9.70
2022-11-30T07:32:12.378Z,9.13
2022-11-30T07:34:39.793Z,8.83
2022-11-30T07:37:08.546Z,8.57
2022-11-30T07:39:35.958Z,9.13
2022-11-30T07:42:03.335Z,9.13
2022-11-30T07:44:30.750Z,8.97
2022-11-30T07:46:58.133Z,9.43
2022-11-30T07:49:25.702Z,9.43
2022-11-30T07:51:54.240Z,8.67
2022-11-30T07:54:23.033Z,9.03
2022-11-30T07:56:50.446Z,9.03
2022-11-30T07:59:17.964Z,8.47
2022-11-30T08:01:45.717Z,7.43
2022-11-30T08:04:14.410Z,8.53
2022-11-30T08:06:42.205Z,8.37
2022-11-30T08:09:19.232Z,8.07
2022-11-30T08:11:49.619Z,8.40
2022-11-30T08:14:17.135Z,8.77
2022-11-30T08:16:44.686Z,7.93
2022-11-30T08:19:12.199Z,7.80
2022-11-30T08:21:40.653Z,7.07
2022-11-30T08:24:08.255Z,8.57
2022-11-30T08:26:35.754Z,7.77
2022-11-30T08:29:04.811Z,7.27
2022-11-30T08:31:32.874Z,7.73
2022-11-30T08:34:01.322Z,8.37
2022-11-30T08:36:29.722Z,8.77
2022-11-30T08:38:58.028Z,8.40
2022-11-30T08:41:25.912Z,8.67
2022-11-30T08:43:53.617Z,8.07
2022-11-30T08:49:26.563Z,8.67
2022-11-30T08:54:45.013Z,8.50
2022-11-30T08:57:12.846Z,8.20
2022-11-30T08:59:40.266Z,7.57
2022-11-30T09:02:10.057Z,7.87
2022-11-30T09:04:37.470Z,8.07
2022-11-30T09:07:04.911Z,7.60
2022-11-30T09:09:32.562Z,8.03
2022-11-30T09:12:00.100Z,7.43
2022-11-30T09:14:27.497Z,7.23
2022-11-30T09:16:55.174Z,7.37
2022-11-30T09:19:23.947Z,7.03
2022-11-30T09:21:52.399Z,7.03
2022-11-30T09:24:20.304Z,7.80
2022-11-30T09:26:47.790Z,7.67
2022-11-30T09:29:15.219Z,6.93
2022-11-30T09:31:42.655Z,6.73
2022-11-30T09:34:11.714Z,7.73
2022-11-30T09:36:40.533Z,7.03
2022-11-30T09:39:07.968Z,6.93
2022-11-30T09:41:50.327Z,7.80
2022-11-30T09:44:21.503Z,7.20
2022-11-30T09:46:50.465Z,7.53
2022-11-30T09:49:19.687Z,7.13
2022-11-30T09:51:49.004Z,6.70
2022-11-30T09:54:17.709Z,7.23
2022-11-30T09:56:45.491Z,7.07
2022-11-30T09:59:15.583Z,7.57
2022-11-30T10:01:46.090Z,6.20
2022-11-30T10:04:21.083Z,7.93
2022-11-30T10:06:53.981Z,7.93
2022-11-30T10:09:27.175Z,7.87
2022-11-30T10:11:58.898Z,8.63
2022-11-30T10:14:33.700Z,7.80
2022-11-30T10:17:03.942Z,7.90
2022-11-30T10:19:41.132Z,8.20
2022-11-30T10:22:14.405Z,8.73
2022-11-30T10:24:52.746Z,8.47
2022-11-30T10:27:31.553Z,8.50
2022-11-30T10:30:00.086Z,8.67
2022-11-30T10:32:33.241Z,8.30
2022-11-30T10:35:04.131Z,7.83
2022-11-30T10:37:36.075Z,8.33
2022-11-30T10:40:05.729Z,8.73
2022-11-30T10:42:35.633Z,8.77
2022-11-30T10:45:09.279Z,9.10
2022-11-30T10:47:37.685Z,8.83
2022-11-30T10:50:05.510Z,8.33
2022-11-30T10:52:36.857Z,8.87
2022-11-30T10:55:05.332Z,8.63
2022-11-30T10:57:33.353Z,8.33
2022-11-30T11:00:01.499Z,7.17
2022-11-30T11:02:36.833Z,7.10
2022-11-30T11:05:18.057Z,7.07
2022-11-30T11:07:49.233Z,7.47
2022-11-30T11:10:17.911Z,6.27
2022-11-30T11:12:47.796Z,5.90
2022-11-30T11:15:20.452Z,6.93
2022-11-30T11:17:48.232Z,7.33
2022-11-30T11:20:32.973Z,7.40
2022-11-30T11:23:02.882Z,7.40
2022-11-30T11:25:33.698Z,10.70
2022-11-30T11:28:04.142Z,7.90
2022-11-30T11:30:32.073Z,7.03
2022-11-30T11:33:01.477Z,6.97
2022-11-30T11:35:36.372Z,7.30
2022-11-30T11:38:05.278Z,6.93
2022-11-30T11:40:32.809Z,7.23
2022-11-30T11:43:00.598Z,7.43
2022-11-30T11:45:29.526Z,7.13
2022-11-30T11:47:58.984Z,7.50
2022-11-30T11:53:26.619Z,7.63
2022-11-30T11:55:56.138Z,6.70
2022-11-30T11:58:27.642Z,7.50
2022-11-30T12:01:16.877Z,7.43
2022-11-30T12:03:44.898Z,7.37
2022-11-30T12:06:14.791Z,7.90
2022-11-30T12:08:47.435Z,7.40
2022-11-30T12:11:16.887Z,6.77
2022-11-30T12:13:45.280Z,7.60
2022-11-30T12:16:36.465Z,6.97
2022-11-30T12:19:08.720Z,7.20
2022-11-30T12:21:42.606Z,7.07
2022-11-30T12:24:23.098Z,7.00
2022-11-30T12:26:57.527Z,8.20
2022-11-30T12:29:25.969Z,7.73
2022-11-30T12:32:02.167Z,8.23
2022-11-30T12:34:36.137Z,8.37
2022-11-30T12:37:09.734Z,8.80
2022-11-30T12:39:43.585Z,9.07
2022-11-30T12:42:15.634Z,9.23
2022-11-30T12:44:48.340Z,9.23
2022-11-30T12:47:22.470Z,9.10
2022-11-30T12:49:56.702Z,9.77
2022-11-30T12:52:29.047Z,9.43
2022-11-30T12:55:00.757Z,8.20
2022-11-30T12:57:30.085Z,9.73
2022-11-30T13:00:02.765Z,9.67
2022-11-30T13:02:51.005Z,9.60
2022-11-30T13:05:22.702Z,9.90
2022-11-30T13:07:53.428Z,9.90
2022-11-30T13:10:26.991Z,9.87
2022-11-30T13:12:54.789Z,11.17
2022-11-30T13:15:23.687Z,11.00
2022-11-30T13:17:51.861Z,11.27
2022-11-30T13:20:23.050Z,10.50
2022-11-30T13:22:53.652Z,10.43
2022-11-30T13:25:45.264Z,10.13
2022-11-30T13:28:18.910Z,10.27
2022-11-30T13:30:51.078Z,11.93
2022-11-30T13:33:36.904Z,11.17
2022-11-30T13:36:05.285Z,11.00
2022-11-30T13:38:37.739Z,11.73
2022-11-30T13:41:07.906Z,11.83
2022-11-30T13:43:37.941Z,10.67
2022-11-30T13:46:06.656Z,11.50
2022-11-30T13:48:35.174Z,11.67
2022-11-30T13:51:04.079Z,11.70
2022-11-30T13:53:34.208Z,11.40
2022-11-30T13:56:03.232Z,12.40
2022-11-30T13:58:31.142Z,12.57
2022-11-30T14:01:04.638Z,10.97
2022-11-30T14:03:32.503Z,11.93
2022-11-30T14:06:00.554Z,11.77
2022-11-30T14:08:36.794Z,12.20
2022-11-30T14:11:23.016Z,11.17
2022-11-30T14:13:50.983Z,11.40
2022-11-30T14:16:24.146Z,12.20
2022-11-30T14:18:51.807Z,11.47
2022-11-30T14:21:22.442Z,12.10
2022-11-30T14:23:53.158Z,11.23
2022-11-30T14:26:23.176Z,10.83
2022-11-30T14:28:53.335Z,11.37
2022-11-30T14:31:23.069Z,11.57
2022-11-30T14:33:55.644Z,11.77
2022-11-30T14:36:24.110Z,10.83
2022-11-30T14:38:51.697Z,10.90
2022-11-30T14:41:23.023Z,11.10
2022-11-30T14:44:03.606Z,11.30
2022-11-30T14:46:31.441Z,11.33
2022-11-30T14:49:12.368Z,11.53
2022-11-30T14:51:39.923Z,10.90
2022-11-30T14:54:12.625Z,11.37
2022-11-30T14:56:44.045Z,11.13
2022-11-30T14:59:17.752Z,10.70
2022-11-30T15:01:45.574Z,10.57
2022-11-30T15:04:16.067Z,10.57
2022-11-30T15:06:43.828Z,10.70
2022-11-30T15:09:16.443Z,10.40
2022-11-30T15:11:44.367Z,10.37
2022-11-30T15:14:12.125Z,10.80
2022-11-30T15:16:47.059Z,9.93
2022-11-30T15:19:21.361Z,10.67
2022-11-30T15:21:48.927Z,10.00
2022-11-30T15:24:16.668Z,15.63
2022-11-30T15:26:49.773Z,15.43
2022-11-30T15:29:22.421Z,18.60
2022-11-30T15:31:50.814Z,17.97
2022-11-30T15:34:21.239Z,17.20
2022-11-30T15:36:49.983Z,16.27
2022-11-30T15:39:19.076Z,17.93
2022-11-30T15:41:46.696Z,16.97
2022-11-30T15:44:24.023Z,19.43
2022-11-30T15:46:56.302Z,17.80
2022-11-30T15:49:26.338Z,18.03
2022-11-30T15:52:02.185Z,17.53
2022-11-30T15:54:56.560Z,18.17
2022-11-30T15:57:24.736Z,16.97
2022-11-30T16:00:07.165Z,15.63
2022-11-30T16:02:35.690Z,16.13
2022-11-30T16:05:19.530Z,16.17
2022-11-30T16:07:50.928Z,16.53
2022-11-30T16:10:20.381Z,17.60
2022-11-30T16:12:49.382Z,16.93
2022-11-30T16:15:17.810Z,15.43
2022-11-30T16:17:45.226Z,14.77
2022-11-30T16:20:13.593Z,14.87
2022-11-30T16:22:42.188Z,16.30
2022-11-30T16:25:13.685Z,19.83
2022-11-30T16:27:41.312Z,17.63
2022-11-30T16:30:09.296Z,18.90
2022-11-30T16:32:36.758Z,17.93
2022-11-30T16:35:04.245Z,17.47
2022-11-30T16:37:31.647Z,17.20
2022-11-30T16:39:59.213Z,16.97
2022-11-30T16:42:27.996Z,17.93
2022-11-30T16:44:55.427Z,16.67
2022-11-30T16:47:22.855Z,17.43
2022-11-30T16:49:50.312Z,16.53
2022-11-30T16:52:18.046Z,17.07
2022-11-30T16:54:45.583Z,17.70
2022-11-30T16:57:12.998Z,15.50
2022-11-30T16:59:41.800Z,14.97
2022-11-30T17:02:15.333Z,15.17
2022-11-30T17:04:42.789Z,17.13
2022-11-30T17:07:10.270Z,16.70
2022-11-30T17:09:37.723Z,16.73
2022-11-30T17:12:05.262Z,16.33
2022-11-30T17:14:32.651Z,16.57
2022-11-30T17:17:01.497Z,16.83
2022-11-30T17:19:29.002Z,16.47
2022-11-30T17:21:56.497Z,16.73
2022-11-30T17:24:24.160Z,16.70
2022-11-30T17:26:51.632Z,16.17
2022-11-30T17:29:19.085Z,15.60
2022-11-30T17:31:46.484Z,16.20
2022-11-30T17:34:15.286Z,15.33
2022-11-30T17:36:42.777Z,15.43
2022-11-30T17:39:10.197Z,14.57
2022-11-30T17:41:37.605Z,14.43
2022-11-30T17:44:05.040Z,15.00
2022-11-30T17:46:32.450Z,14.10
2022-11-30T17:48:59.924Z,13.63
2022-11-30T17:51:29.002Z,14.47
2022-11-30T17:53:56.518Z,13.10
2022-11-30T17:56:24.223Z,14.17
2022-11-30T17:58:51.682Z,14.13
2022-11-30T18:01:19.828Z,14.73
2022-11-30T18:03:47.419Z,14.77
2022-11-30T18:06:15.042Z,14.97
2022-11-30T18:08:44.056Z,15.43
2022-11-30T18:11:12.513Z,15.47
2022-11-30T18:13:39.916Z,16.27
2022-11-30T18:16:07.952Z,15.73
2022-11-30T18:18:35.750Z,15.87
2022-11-30T18:21:06.358Z,16.63
2022-11-30T18:23:34.996Z,17.00
2022-11-30T18:26:03.991Z,16.00
2022-11-30T18:28:31.452Z,16.97
2022-11-30T18:30:58.952Z,15.47
2022-11-30T18:33:26.508Z,15.80
2022-11-30T18:35:57.590Z,15.77
2022-11-30T18:38:25.210Z,15.77
2022-11-30T18:40:52.659Z,16.27
2022-11-30T18:43:21.675Z,16.07
2022-11-30T18:45:49.144Z,15.57
2022-11-30T18:48:16.683Z,16.23
2022-11-30T18:50:44.176Z,16.20
2022-11-30T18:53:15.205Z,14.77
2022-11-30T18:55:45.637Z,14.63
2022-11-30T18:58:13.040Z,14.77
2022-11-30T19:00:41.872Z,15.40
2022-11-30T19:03:09.299Z,13.53
2022-11-30T19:05:38.181Z,14.57
2022-11-30T19:08:07.026Z,12.93
2022-11-30T19:10:34.918Z,12.50
2022-11-30T19:13:03.978Z,12.03
2022-11-30T19:15:31.486Z,12.87
2022-11-30T19:18:00.572Z,13.03
2022-11-30T19:20:28.059Z,13.80
2022-11-30T19:22:55.486Z,12.57
2022-11-30T19:25:22.931Z,13.63
2022-11-30T19:27:50.334Z,12.53
2022-11-30T19:30:18.047Z,13.40
2022-11-30T19:32:45.453Z,14.03
2022-11-30T19:35:14.215Z,14.90
2022-11-30T19:37:41.622Z,14.43
2022-11-30T19:40:09.475Z,14.37
2022-11-30T19:42:36.889Z,14.53
2022-11-30T19:45:04.836Z,14.73
2022-11-30T19:47:32.253Z,14.53
2022-11-30T19:49:59.667Z,14.93
2022-11-30T19:52:28.425Z,14.83
2022-11-30T19:54:55.851Z,15.27
2022-11-30T19:57:23.255Z,16.87
2022-11-30T19:59:50.675Z,15.53
2022-11-30T20:02:18.162Z,17.13
2022-11-30T20:04:45.755Z,17.20
2022-11-30T20:07:13.469Z,15.93
2022-11-30T20:09:42.429Z,18.03
2022-11-30T20:12:09.865Z,18.30
2022-11-30T20:14:37.292Z,20.40
2022-11-30T20:17:04.896Z,20.53
2022-11-30T20:19:32.662Z,18.33
2022-11-30T20:22:00.577Z,19.33
2022-11-30T20:24:28.074Z,20.33
2022-11-30T20:26:56.976Z,20.23
2022-11-30T20:29:24.419Z,20.17
2022-11-30T20:31:51.874Z,22.63
2022-11-30T20:34:19.327Z,19.63
2022-11-30T20:36:46.986Z,21.17
2022-11-30T20:39:14.457Z,21.37
2022-11-30T20:41:42.486Z,22.43
2022-11-30T20:44:13.864Z,19.93
2022-11-30T20:46:41.377Z,22.83
2022-11-30T20:49:13.480Z,21.73
2022-11-30T20:51:41.004Z,21.83
2022-11-30T20:54:08.407Z,20.10
2022-11-30T20:56:37.020Z,22.57
2022-11-30T20:59:05.815Z,20.70
2022-11-30T21:01:34.823Z,20.07
2022-11-30T21:04:02.318Z,22.27
2022-11-30T21:06:30.395Z,22.80
2022-11-30T21:08:57.976Z,22.00
2022-11-30T21:11:25.966Z,24.20
2022-11-30T21:13:53.628Z,20.93
2022-11-30T21:16:27.165Z,23.60
2022-11-30T21:18:57.274Z,23.47
2022-11-30T21:21:25.671Z,20.27
2022-11-30T21:23:53.219Z,19.97
2022-11-30T21:26:21.859Z,21.37
2022-11-30T21:28:50.234Z,22.87
2022-11-30T21:31:17.715Z,21.70
2022-11-30T21:33:52.407Z,23.07
2022-11-30T21:36:22.565Z,22.47
2022-11-30T21:38:54.300Z,23.50
2022-11-30T21:41:23.538Z,22.43
2022-11-30T21:43:50.941Z,23.60
2022-11-30T21:46:19.245Z,23.10
2022-11-30T21:48:47.717Z,23.43
2022-11-30T21:51:16.412Z,23.53
2022-11-30T21:53:45.987Z,22.73
2022-11-30T21:56:15.471Z,23.80
2022-11-30T21:58:43.571Z,21.40
2022-11-30T22:01:12.775Z,20.63
2022-11-30T22:03:40.292Z,26.03
2022-11-30T22:06:08.641Z,23.57
2022-11-30T22:08:36.364Z,24.17
2022-11-30T22:11:06.246Z,25.53
2022-11-30T22:13:34.076Z,23.57
2022-11-30T22:16:02.113Z,24.23
2022-11-30T22:18:29.578Z,24.47
2022-11-30T22:21:02.933Z,23.03
2022-11-30T22:23:30.334Z,24.60
2022-11-30T22:26:09.096Z,22.80
2022-11-30T22:28:36.637Z,21.57
2022-11-30T22:31:04.325Z,23.10
2022-11-30T22:33:32.768Z,20.80
2022-11-30T22:36:00.313Z,24.17
2022-11-30T22:38:27.851Z,23.37
2022-11-30T22:40:55.287Z,25.00
2022-11-30T22:43:24.046Z,24.33
2022-11-30T22:45:52.479Z,22.97
2022-11-30T22:48:19.908Z,24.73
2022-11-30T22:50:47.332Z,25.93
2022-11-30T22:53:14.720Z,26.57
2022-11-30T22:55:47.835Z,25.23
2022-11-30T22:58:15.786Z,26.30
2022-11-30T23:00:44.514Z,25.40
2022-11-30T23:03:12.051Z,24.97
2022-11-30T23:05:39.503Z,25.13
2022-11-30T23:08:06.991Z,24.83
2022-11-30T23:10:34.439Z,25.17
2022-11-30T23:13:01.847Z,26.97
2022-11-30T23:15:29.268Z,26.37
2022-11-30T23:17:58.024Z,27.07
2022-11-30T23:20:25.481Z,26.33
2022-11-30T23:22:52.902Z,26.97
2022-11-30T23:25:21.374Z,25.13
2022-11-30T23:27:48.781Z,26.80
2022-11-30T23:30:17.472Z,25.00
2022-11-30T23:32:44.914Z,27.60
2022-11-30T23:35:13.758Z,25.33
2022-11-30T23:37:41.143Z,27.00
2022-11-30T23:40:09.132Z,27.17
2022-11-30T23:42:36.540Z,26.00
2022-11-30T23:45:03.958Z,28.00
2022-11-30T23:47:31.363Z,24.77
2022-11-30T23:49:59.846Z,25.83
2022-11-30T23:52:28.613Z,28.23
2022-11-30T23:54:55.996Z,27.63
2022-11-30T23:57:23.410Z,27.10
2022-11-30T23:59:50.901Z,29.37
